Time;durP1;ratioP1;P1;durP2;ratioP2;P2;SDS_P1;SDS_P2;PMS_P1;PMS_P2;Temp;Humidity;BMP_temperature;BMP_pressure;BME280_temperature;BME280_humidity;BME280_pressure;Samples;Min_cycle;Max_cycle;Signal;HPM_P1;HPM_P2
2021/11/24 00:00:20;;;;;;;34.70;22.38;;;6.20;99.90;;;;;;2088453;28;20114;-72
2021/11/24 00:01:20;;;;;;;36.05;22.70;;;6.30;99.90;;;;;;2088207;28;20115;-71
2021/11/24 00:02:21;;;;;;;31.52;20.88;;;6.20;99.90;;;;;;2088063;28;20392;-71
2021/11/24 00:03:22;;;;;;;34.35;22.40;;;6.30;99.90;;;;;;2079694;28;20025;-71
2021/11/24 00:04:23;;;;;;;34.10;21.08;;;6.20;99.90;;;;;;2087638;28;20075;-73
2021/11/24 00:05:23;;;;;;;32.42;21.33;;;6.20;99.90;;;;;;2088679;28;20021;-73
2021/11/24 00:06:24;;;;;;;31.70;20.90;;;6.20;99.90;;;;;;2087787;28;20480;-73
2021/11/24 00:07:25;;;;;;;30.75;20.17;;;6.20;99.90;;;;;;2088844;28;20021;-72
2021/11/24 00:08:26;;;;;;;29.17;20.30;;;6.20;99.90;;;;;;2089454;28;20055;-71
2021/11/24 00:09:26;;;;;;;28.55;19.40;;;6.30;99.90;;;;;;2089416;28;20036;-72
2021/11/24 00:10:32;;;;;;;29.25;19.83;;;6.20;99.90;;;;;;2089389;28;20044;-73
2021/11/24 00:11:33;;;;;;;28.92;19.40;;;6.20;99.90;;;;;;2089676;28;20071;-72
2021/11/24 00:12:34;;;;;;;26.70;18.25;;;6.20;99.90;;;;;;2090048;28;20477;-72
2021/11/24 00:13:35;;;;;;;29.92;19.85;;;6.10;99.90;;;;;;2089326;28;20029;-73
2021/11/24 00:14:36;;;;;;;32.83;20.83;;;6.10;99.90;;;;;;2079108;28;20418;-70
2021/11/24 00:15:37;;;;;;;31.45;20.48;;;6.10;99.90;;;;;;2088589;28;20075;-72
2021/11/24 00:16:38;;;;;;;30.30;20.33;;;6.00;99.90;;;;;;2081927;28;20116;-71
2021/11/24 00:17:39;;;;;;;29.25;19.73;;;6.00;99.90;;;;;;2089733;28;20029;-70
2021/11/24 00:18:40;;;;;;;30.75;20.98;;;6.00;99.90;;;;;;2089276;28;20047;-72
2021/11/24 00:19:41;;;;;;;29.23;20.13;;;6.00;99.90;;;;;;2089118;28;20032;-71
2021/11/24 00:20:41;;;;;;;31.60;20.85;;;6.00;99.90;;;;;;2089672;28;20100;-70
2021/11/24 00:21:50;;;;;;;30.20;20.55;;;6.00;99.90;;;;;;2088634;28;20392;-71
2021/11/24 00:22:54;;;;;;;29.80;20.30;;;6.00;99.90;;;;;;2089060;28;20104;-69
2021/11/24 00:23:54;;;;;;;34.35;21.25;;;5.90;99.90;;;;;;2089106;28;20424;-69
2021/11/24 00:24:55;;;;;;;33.97;22.08;;;6.00;99.90;;;;;;2088946;28;20017;-71
2021/11/24 00:25:57;;;;;;;33.35;21.50;;;5.90;99.90;;;;;;2088539;28;20091;-69
2021/11/24 00:26:58;;;;;;;32.83;21.48;;;5.90;99.90;;;;;;2089054;28;20028;-70
2021/11/24 00:27:59;;;;;;;29.77;19.83;;;5.90;99.90;;;;;;2080763;28;20133;-72
2021/11/24 00:28:59;;;;;;;29.90;19.70;;;6.00;99.90;;;;;;2080405;28;20045;-71
2021/11/24 00:30:00;;;;;;;27.55;18.38;;;6.00;99.90;;;;;;2089024;28;20059;-70
2021/11/24 00:31:01;;;;;;;29.20;19.35;;;6.00;99.90;;;;;;2080479;28;20025;-71
2021/11/24 00:32:02;;;;;;;28.05;19.17;;;6.00;99.90;;;;;;2080441;28;20029;-71
2021/11/24 00:33:03;;;;;;;28.27;19.10;;;6.00;99.90;;;;;;2089524;28;20559;-72
2021/11/24 00:34:04;;;;;;;28.45;19.60;;;6.00;99.90;;;;;;2089659;28;20021;-72
2021/11/24 00:35:08;;;;;;;29.85;19.80;;;6.00;99.90;;;;;;2088770;28;20547;-72
2021/11/24 00:36:09;;;;;;;29.52;19.60;;;6.00;99.90;;;;;;2088661;28;20036;-72
2021/11/24 00:37:10;;;;;;;27.00;19.08;;;6.00;99.90;;;;;;2088691;28;20029;-71
2021/11/24 00:38:11;;;;;;;35.28;22.02;;;6.00;99.90;;;;;;2089021;28;20017;-72
2021/11/24 00:39:12;;;;;;;32.20;20.50;;;6.00;99.90;;;;;;2089546;28;20493;-72
2021/11/24 00:40:15;;;;;;;28.52;19.60;;;6.00;99.90;;;;;;2088858;28;20033;-71
2021/11/24 00:41:16;;;;;;;28.88;19.92;;;6.00;99.90;;;;;;2088385;28;20492;-71
2021/11/24 00:42:16;;;;;;;28.40;19.40;;;6.00;99.90;;;;;;2089468;28;20029;-72
2021/11/24 00:43:18;;;;;;;29.05;19.48;;;6.00;99.90;;;;;;2089385;28;20397;-71
2021/11/24 00:44:18;;;;;;;28.90;19.35;;;6.00;99.90;;;;;;2088877;28;20064;-72
2021/11/24 00:45:22;;;;;;;24.67;17.75;;;6.00;99.90;;;;;;2088969;28;20029;-72
2021/11/24 00:46:23;;;;;;;26.33;17.77;;;6.00;99.90;;;;;;2089029;28;20037;-71
2021/11/24 00:47:23;;;;;;;23.83;16.80;;;6.00;99.90;;;;;;2089530;28;20111;-72
2021/11/24 00:48:24;;;;;;;24.77;16.80;;;6.00;99.90;;;;;;2089069;28;20049;-72
2021/11/24 00:49:25;;;;;;;24.70;17.17;;;6.00;99.90;;;;;;2089920;28;20436;-72
2021/11/24 00:50:26;;;;;;;23.38;16.33;;;6.00;99.90;;;;;;2090708;28;20024;-73
2021/11/24 00:51:27;;;;;;;24.33;17.02;;;6.10;99.90;;;;;;2089599;28;20595;-72
2021/11/24 00:52:29;;;;;;;23.08;16.52;;;6.10;99.90;;;;;;2089526;28;20024;-72
2021/11/24 00:53:30;;;;;;;22.42;15.63;;;6.10;99.90;;;;;;2090171;28;20032;-73
2021/11/24 00:54:31;;;;;;;23.52;16.05;;;6.00;99.90;;;;;;2090087;28;20124;-72
2021/11/24 00:55:32;;;;;;;23.85;17.08;;;6.10;99.90;;;;;;2090168;28;20092;-73
2021/11/24 00:56:33;;;;;;;24.50;17.38;;;6.00;99.90;;;;;;2089891;28;20116;-73
2021/11/24 00:57:34;;;;;;;24.13;16.88;;;6.10;99.90;;;;;;2090222;28;20025;-71
2021/11/24 00:58:35;;;;;;;22.50;15.65;;;6.10;99.90;;;;;;2089575;28;20028;-72
2021/11/24 00:59:35;;;;;;;20.83;14.75;;;6.10;99.90;;;;;;2089709;28;20606;-72
2021/11/24 01:00:36;;;;;;;22.58;16.00;;;6.00;99.90;;;;;;2089377;28;20048;-71
2021/11/24 01:01:37;;;;;;;23.63;16.15;;;6.10;99.90;;;;;;2088930;28;20044;-72
2021/11/24 01:02:38;;;;;;;23.02;16.15;;;6.00;99.90;;;;;;2089780;28;20206;-71
2021/11/24 01:03:38;;;;;;;22.67;16.20;;;6.00;99.90;;;;;;2089157;28;20025;-71
2021/11/24 01:04:39;;;;;;;23.95;16.50;;;6.10;99.90;;;;;;2089606;28;20029;-71
2021/11/24 01:05:45;;;;;;;25.33;17.13;;;6.10;99.90;;;;;;2089593;28;20025;-72
2021/11/24 01:06:45;;;;;;;24.45;17.08;;;6.10;99.90;;;;;;2088779;28;20132;-67
2021/11/24 01:07:46;;;;;;;29.42;19.70;;;6.10;99.90;;;;;;2089155;28;20499;-67
2021/11/24 01:08:47;;;;;;;28.13;19.13;;;6.10;99.90;;;;;;2089651;28;20392;-68
2021/11/24 01:09:51;;;;;;;28.85;19.35;;;6.10;99.90;;;;;;2089247;28;20108;-67
2021/11/24 01:10:52;;;;;;;27.80;17.90;;;6.10;99.90;;;;;;2088440;28;20025;-68
2021/11/24 01:11:53;;;;;;;26.00;17.92;;;6.10;99.90;;;;;;2089761;28;20021;-71
2021/11/24 01:12:54;;;;;;;27.63;17.70;;;6.10;99.90;;;;;;2089828;28;20071;-71
2021/11/24 01:13:55;;;;;;;24.77;17.42;;;6.10;99.90;;;;;;2088116;28;20090;-71
2021/11/24 01:14:56;;;;;;;24.15;16.88;;;6.10;99.90;;;;;;2089251;28;20021;-71
2021/11/24 01:15:57;;;;;;;22.33;16.20;;;6.10;99.90;;;;;;2080819;28;20033;-71
2021/11/24 01:16:58;;;;;;;22.60;16.38;;;6.10;99.90;;;;;;2075196;28;20033;-71
2021/11/24 01:17:59;;;;;;;23.13;16.48;;;6.10;99.90;;;;;;2090145;28;20037;-70
2021/11/24 01:19:00;;;;;;;22.35;15.60;;;6.10;99.90;;;;;;2098064;28;20028;-71
2021/11/24 01:20:03;;;;;;;21.42;15.18;;;6.10;99.90;;;;;;2096787;28;20020;-71
2021/11/24 01:21:04;;;;;;;21.05;15.27;;;6.10;99.90;;;;;;2081298;28;20038;-71
2021/11/24 01:22:05;;;;;;;21.88;15.80;;;6.10;99.90;;;;;;2073166;28;20818;-71
2021/11/24 01:23:06;;;;;;;22.50;15.95;;;6.10;99.90;;;;;;2089329;28;20112;-71
2021/11/24 01:24:07;;;;;;;22.65;15.73;;;6.10;99.90;;;;;;2090258;28;20092;-71
2021/11/24 01:25:11;;;;;;;22.80;15.32;;;6.10;99.90;;;;;;2088609;28;20029;-70
2021/11/24 01:26:12;;;;;;;23.40;16.83;;;6.10;99.90;;;;;;2088448;28;20021;-69
2021/11/24 01:27:13;;;;;;;25.25;17.63;;;6.20;99.90;;;;;;2088889;28;20520;-69
2021/11/24 01:28:14;;;;;;;26.67;17.88;;;6.10;99.90;;;;;;2089572;28;20032;-69
2021/11/24 01:29:15;;;;;;;25.38;17.17;;;6.10;99.90;;;;;;2088982;28;20112;-70
2021/11/24 01:30:16;;;;;;;23.85;16.55;;;6.10;99.90;;;;;;2090123;28;20032;-69
2021/11/24 01:31:18;;;;;;;24.25;16.48;;;6.10;99.90;;;;;;2090550;28;20033;-69
2021/11/24 01:32:18;;;;;;;22.92;16.38;;;6.20;99.90;;;;;;2090965;28;20030;-70
2021/11/24 01:33:21;;;;;;;22.88;15.65;;;6.20;99.90;;;;;;2090786;28;20496;-70
2021/11/24 01:34:22;;;;;;;23.92;16.25;;;6.20;99.90;;;;;;2089777;28;20036;-70
2021/11/24 01:35:23;;;;;;;24.70;17.15;;;6.20;99.90;;;;;;2089288;28;20068;-70
2021/11/24 01:36:26;;;;;;;22.92;15.93;;;6.20;99.90;;;;;;2088715;28;20103;-70
2021/11/24 01:37:27;;;;;;;21.95;15.23;;;6.10;99.90;;;;;;2089108;28;20035;-69
2021/11/24 01:38:29;;;;;;;23.25;15.85;;;6.10;99.90;;;;;;2088644;28;20067;-70
2021/11/24 01:39:29;;;;;;;24.65;16.52;;;6.10;99.90;;;;;;2072261;28;20026;-70
2021/11/24 01:40:30;;;;;;;24.88;16.00;;;6.10;99.90;;;;;;2080460;28;20570;-70
2021/11/24 01:41:31;;;;;;;23.20;15.57;;;6.10;99.90;;;;;;2088999;28;20033;-70
2021/11/24 01:42:33;;;;;;;23.58;15.60;;;6.10;99.90;;;;;;2089995;28;20032;-70
2021/11/24 01:43:34;;;;;;;22.10;15.13;;;6.10;99.90;;;;;;2089977;28;20032;-72
2021/11/24 01:44:36;;;;;;;23.27;15.60;;;6.10;99.90;;;;;;2090264;28;20025;-71
2021/11/24 01:45:37;;;;;;;22.30;15.23;;;6.10;99.90;;;;;;2089781;28;20435;-70
2021/11/24 01:46:38;;;;;;;22.52;15.52;;;6.10;99.90;;;;;;2081550;28;20131;-70
2021/11/24 01:47:39;;;;;;;22.70;14.93;;;6.10;99.90;;;;;;2089835;28;20492;-70
2021/11/24 01:48:40;;;;;;;22.20;14.98;;;6.00;99.90;;;;;;2082059;28;20032;-70
2021/11/24 01:49:41;;;;;;;26.23;16.08;;;6.00;99.90;;;;;;2081754;28;20064;-70
2021/11/24 01:50:42;;;;;;;25.30;17.23;;;6.00;99.90;;;;;;2089099;28;20017;-70
2021/11/24 01:51:43;;;;;;;24.40;16.15;;;6.00;99.90;;;;;;2079658;28;20104;-69
2021/11/24 01:52:44;;;;;;;24.77;16.65;;;6.00;99.90;;;;;;2088686;28;20048;-69
2021/11/24 01:53:45;;;;;;;24.20;16.33;;;6.10;99.90;;;;;;2088843;28;20506;-70
2021/11/24 01:54:46;;;;;;;23.67;16.05;;;6.10;99.90;;;;;;2089296;28;20076;-70
2021/11/24 01:55:47;;;;;;;24.27;16.10;;;6.10;99.90;;;;;;2089242;28;20037;-70
2021/11/24 01:56:48;;;;;;;24.67;16.23;;;6.00;99.90;;;;;;2089237;28;20302;-70
2021/11/24 01:57:51;;;;;;;29.52;18.73;;;6.00;99.90;;;;;;2088827;28;20104;-69
2021/11/24 01:58:52;;;;;;;27.60;17.30;;;6.00;99.90;;;;;;2089087;28;20025;-70
2021/11/24 01:59:53;;;;;;;27.58;17.88;;;6.10;99.90;;;;;;2088246;28;20508;-70
2021/11/24 02:00:54;;;;;;;27.13;17.02;;;6.00;99.90;;;;;;2088220;28;20515;-69
2021/11/24 02:01:55;;;;;;;26.85;17.50;;;6.10;99.90;;;;;;2088300;28;20064;-69
2021/11/24 02:02:56;;;;;;;27.05;17.60;;;6.10;99.90;;;;;;2088870;28;20035;-69
2021/11/24 02:03:57;;;;;;;25.77;17.10;;;6.10;99.90;;;;;;2088137;28;20230;-69
2021/11/24 02:04:58;;;;;;;25.98;17.45;;;6.10;99.90;;;;;;2088311;28;20029;-69
2021/11/24 02:05:59;;;;;;;28.90;18.75;;;6.10;99.90;;;;;;2087797;28;20037;-70
2021/11/24 02:06:59;;;;;;;27.27;17.98;;;6.10;99.90;;;;;;2088890;28;20021;-69
2021/11/24 02:08:00;;;;;;;25.70;16.65;;;6.10;99.90;;;;;;2088776;28;20025;-69
2021/11/24 02:09:02;;;;;;;28.77;18.73;;;6.10;99.90;;;;;;2088725;28;20029;-66
2021/11/24 02:10:03;;;;;;;27.45;17.65;;;6.10;99.90;;;;;;2089002;28;20404;-69
2021/11/24 02:11:04;;;;;;;29.58;18.80;;;6.10;99.90;;;;;;2087943;28;20075;-69
2021/11/24 02:12:05;;;;;;;29.73;19.25;;;6.10;99.90;;;;;;2088119;28;20029;-69
2021/11/24 02:13:06;;;;;;;33.22;20.52;;;6.20;99.90;;;;;;2088944;28;20048;-69
2021/11/24 02:14:08;;;;;;;33.13;20.85;;;6.10;99.90;;;;;;2089037;28;20795;-69
2021/11/24 02:15:09;;;;;;;33.47;20.33;;;6.10;99.90;;;;;;2088949;28;20170;-69
2021/11/24 02:16:10;;;;;;;33.88;21.27;;;6.10;99.90;;;;;;2088517;28;20444;-69
2021/11/24 02:17:14;;;;;;;33.22;21.02;;;6.20;99.90;;;;;;2088816;28;20021;-68
2021/11/24 02:18:15;;;;;;;34.90;21.40;;;6.10;99.90;;;;;;2088546;28;20144;-69
2021/11/24 02:19:17;;;;;;;33.63;20.73;;;6.20;99.90;;;;;;2088649;28;20044;-69
2021/11/24 02:20:47;;;;;;;34.58;20.83;;;6.20;99.90;;;;;;2088693;28;20025;-64
2021/11/24 02:21:49;;;;;;;;;;;6.20;99.90;;;;;;2088220;28;20044;-69
2021/11/24 02:22:50;;;;;;;34.80;21.35;;;6.20;99.90;;;;;;2088147;28;19908;-70
2021/11/24 02:23:51;;;;;;;35.28;20.92;;;6.20;99.90;;;;;;2088673;28;20029;-70
2021/11/24 02:24:51;;;;;;;32.20;20.50;;;6.20;99.90;;;;;;2079844;28;20028;-70
2021/11/24 02:25:52;;;;;;;33.13;20.75;;;6.20;99.90;;;;;;2087663;28;20094;-69
2021/11/24 02:26:53;;;;;;;34.90;21.38;;;6.20;99.90;;;;;;2096299;28;20032;-69
2021/11/24 02:27:53;;;;;;;32.55;20.80;;;6.20;99.90;;;;;;2079780;28;20032;-70
2021/11/24 02:28:55;;;;;;;34.38;21.85;;;6.20;99.90;;;;;;2088135;28;20481;-69
2021/11/24 02:29:55;;;;;;;32.70;20.70;;;6.20;99.90;;;;;;2087545;28;20032;-69
2021/11/24 02:30:56;;;;;;;32.13;20.02;;;6.20;99.90;;;;;;2088541;28;20472;-70
2021/11/24 02:31:59;;;;;;;31.15;19.77;;;6.20;99.90;;;;;;2087633;28;20032;-70
2021/11/24 02:33:00;;;;;;;31.98;20.48;;;6.20;99.90;;;;;;2087995;28;20398;-70
2021/11/24 02:34:01;;;;;;;32.42;20.13;;;6.20;99.90;;;;;;2088059;28;20025;-69
2021/11/24 02:35:02;;;;;;;31.75;20.02;;;6.10;99.90;;;;;;2088081;28;20073;-70
2021/11/24 02:36:03;;;;;;;31.63;19.27;;;6.10;99.90;;;;;;2088298;28;20079;-69
2021/11/24 02:37:04;;;;;;;31.60;19.40;;;6.10;99.90;;;;;;2088723;28;20106;-71
2021/11/24 02:38:06;;;;;;;33.15;19.58;;;6.10;99.90;;;;;;2088025;28;20048;-69
2021/11/24 02:39:08;;;;;;;34.72;21.75;;;6.10;99.90;;;;;;2088067;28;20114;-70
2021/11/24 02:40:09;;;;;;;32.25;20.52;;;6.10;99.90;;;;;;2088161;28;20492;-70
2021/11/24 02:41:10;;;;;;;32.03;20.45;;;6.10;99.90;;;;;;2088555;28;20032;-70
2021/11/24 02:42:11;;;;;;;30.92;20.00;;;6.10;99.90;;;;;;2088583;28;20032;-70
2021/11/24 02:43:12;;;;;;;31.65;20.15;;;6.10;99.90;;;;;;2089069;28;20128;-70
2021/11/24 02:44:22;;;;;;;31.33;19.60;;;6.10;99.90;;;;;;2090762;28;20500;-70
2021/11/24 02:45:23;;;;;;;36.25;22.13;;;6.10;99.90;;;;;;2091472;28;20660;-70
2021/11/24 02:46:25;;;;;;;35.55;21.73;;;6.10;99.90;;;;;;2089716;28;20552;-70
2021/11/24 02:47:25;;;;;;;34.13;21.23;;;6.10;99.90;;;;;;2088842;28;20067;-70
2021/11/24 02:48:26;;;;;;;39.33;22.77;;;6.10;99.90;;;;;;2088254;28;20568;-69
2021/11/24 02:49:27;;;;;;;37.63;22.67;;;6.10;99.90;;;;;;2088045;28;20405;-69
2021/11/24 02:50:28;;;;;;;37.95;22.63;;;6.10;99.90;;;;;;2088575;28;20465;-71
2021/11/24 02:51:29;;;;;;;38.40;23.08;;;6.10;99.90;;;;;;2088289;28;20040;-70
2021/11/24 02:52:31;;;;;;;35.70;22.85;;;6.10;99.90;;;;;;2088602;28;20393;-71
2021/11/24 02:53:34;;;;;;;35.03;22.00;;;6.10;99.90;;;;;;2088299;28;20052;-70
2021/11/24 02:54:36;;;;;;;36.35;22.48;;;6.10;99.90;;;;;;2088717;28;20029;-70
2021/11/24 02:55:37;;;;;;;38.08;22.27;;;6.10;99.90;;;;;;2088770;28;20024;-70
2021/11/24 02:56:39;;;;;;;37.50;22.52;;;6.10;99.90;;;;;;2087743;28;20549;-70
2021/11/24 02:57:43;;;;;;;37.72;23.05;;;6.10;99.90;;;;;;2087914;28;20055;-70
2021/11/24 02:58:44;;;;;;;37.10;22.15;;;6.10;99.90;;;;;;2088432;28;20769;-70
2021/11/24 02:59:44;;;;;;;37.20;23.00;;;6.10;99.90;;;;;;2088532;28;20055;-71
2021/11/24 03:00:46;;;;;;;38.22;23.23;;;6.10;99.90;;;;;;2088596;28;20028;-70
2021/11/24 03:01:47;;;;;;;36.70;22.02;;;6.10;99.90;;;;;;2088311;28;20746;-70
2021/11/24 03:02:48;;;;;;;37.72;22.80;;;6.10;99.90;;;;;;2088031;28;20018;-71
2021/11/24 03:03:49;;;;;;;35.45;21.85;;;6.10;99.90;;;;;;2087907;28;20025;-71
2021/11/24 03:04:50;;;;;;;36.00;22.40;;;6.10;99.90;;;;;;2088692;28;20067;-71
2021/11/24 03:05:51;;;;;;;36.97;22.10;;;6.10;99.90;;;;;;2088191;28;20021;-70
2021/11/24 03:06:51;;;;;;;35.90;22.25;;;6.10;99.90;;;;;;2088019;28;20025;-70
2021/11/24 03:07:52;;;;;;;34.25;21.15;;;6.10;99.90;;;;;;2087809;28;20036;-70
2021/11/24 03:08:53;;;;;;;35.50;21.67;;;6.10;99.90;;;;;;2088073;28;20029;-70
2021/11/24 03:09:54;;;;;;;35.40;22.23;;;6.10;99.90;;;;;;2088720;28;20092;-69
2021/11/24 03:10:54;;;;;;;36.13;21.88;;;6.10;99.90;;;;;;2088721;28;20032;-69
2021/11/24 03:11:56;;;;;;;34.42;21.42;;;6.10;99.90;;;;;;2088204;28;20036;-69
2021/11/24 03:12:58;;;;;;;34.00;21.48;;;6.10;99.90;;;;;;2088620;28;20095;-70
2021/11/24 03:13:59;;;;;;;34.40;21.70;;;6.10;99.90;;;;;;2088825;28;20094;-69
2021/11/24 03:14:59;;;;;;;37.22;22.23;;;6.10;99.90;;;;;;2088102;28;20083;-69
2021/11/24 03:16:00;;;;;;;33.35;20.85;;;6.10;99.90;;;;;;2087435;28;20583;-70
2021/11/24 03:17:01;;;;;;;33.03;20.95;;;6.10;99.90;;;;;;2088641;28;20091;-70
2021/11/24 03:18:02;;;;;;;37.30;21.73;;;6.10;99.90;;;;;;2088304;28;20032;-69
2021/11/24 03:19:02;;;;;;;32.97;20.38;;;6.10;99.90;;;;;;2088497;28;20480;-69
2021/11/24 03:20:06;;;;;;;32.63;20.40;;;6.10;99.90;;;;;;2088705;28;20155;-69
2021/11/24 03:21:06;;;;;;;32.15;20.13;;;6.10;99.90;;;;;;2088462;28;20064;-70
2021/11/24 03:22:07;;;;;;;31.60;20.75;;;6.10;99.90;;;;;;2087780;28;20029;-70
2021/11/24 03:23:08;;;;;;;32.88;20.40;;;6.10;99.90;;;;;;2088074;28;20037;-70
2021/11/24 03:24:09;;;;;;;31.02;19.48;;;6.10;99.90;;;;;;2088077;28;20037;-70
2021/11/24 03:25:11;;;;;;;32.22;20.73;;;6.10;99.90;;;;;;2087974;28;20476;-71
2021/11/24 03:26:11;;;;;;;33.08;20.63;;;6.10;99.90;;;;;;2088798;28;20039;-71
2021/11/24 03:27:12;;;;;;;31.30;19.88;;;6.10;99.90;;;;;;2088056;28;20068;-71
2021/11/24 03:28:13;;;;;;;31.50;20.50;;;6.10;99.90;;;;;;2088226;28;20029;-71
2021/11/24 03:29:14;;;;;;;38.55;23.55;;;6.10;99.90;;;;;;2089282;28;20538;-71
2021/11/24 03:30:21;;;;;;;37.25;23.15;;;6.20;99.90;;;;;;2090075;28;20112;-71
2021/11/24 03:31:22;;;;;;;37.30;22.58;;;6.10;99.90;;;;;;2089150;28;20040;-72
2021/11/24 03:32:23;;;;;;;34.95;21.33;;;6.10;99.90;;;;;;2089310;28;20028;-71
2021/11/24 03:33:23;;;;;;;30.77;20.23;;;6.10;99.90;;;;;;2087899;28;20048;-72
2021/11/24 03:34:24;;;;;;;32.40;20.23;;;6.10;99.90;;;;;;2087946;28;20036;-72
2021/11/24 03:35:27;;;;;;;33.25;20.77;;;6.10;99.90;;;;;;2088476;28;20174;-72
2021/11/24 03:36:27;;;;;;;33.53;20.38;;;6.10;99.90;;;;;;2087999;28;20037;-72
2021/11/24 03:37:28;;;;;;;35.35;21.85;;;6.10;99.90;;;;;;2088404;28;20025;-71
2021/11/24 03:38:29;;;;;;;38.42;23.15;;;6.20;99.90;;;;;;2088439;28;20468;-71
2021/11/24 03:39:30;;;;;;;37.97;22.08;;;6.10;99.90;;;;;;2088294;28;20036;-71
2021/11/24 03:40:33;;;;;;;36.72;22.90;;;6.10;99.90;;;;;;2088199;28;20037;-71
2021/11/24 03:41:34;;;;;;;38.90;23.38;;;6.10;99.90;;;;;;2087354;28;20025;-71
2021/11/24 03:42:36;;;;;;;38.33;22.67;;;6.10;99.90;;;;;;2088726;28;20079;-72
2021/11/24 03:43:36;;;;;;;36.83;22.10;;;6.10;99.90;;;;;;2089940;28;20102;-71
2021/11/24 03:44:37;;;;;;;36.58;22.48;;;6.10;99.90;;;;;;2089973;28;20044;-71
2021/11/24 03:45:38;;;;;;;34.85;21.70;;;6.10;99.90;;;;;;2089843;28;20702;-70
2021/11/24 03:46:39;;;;;;;35.92;21.83;;;6.10;99.90;;;;;;2089453;28;20041;-70
2021/11/24 03:47:41;;;;;;;36.58;21.77;;;6.10;99.90;;;;;;2089882;28;20079;-70
2021/11/24 03:48:42;;;;;;;38.33;23.38;;;6.10;99.90;;;;;;2089938;28;20021;-69
2021/11/24 03:49:43;;;;;;;37.47;22.73;;;6.10;99.90;;;;;;2089127;28;20115;-70
2021/11/24 03:50:43;;;;;;;37.38;22.70;;;6.10;99.90;;;;;;2081059;28;20026;-70
2021/11/24 03:51:44;;;;;;;36.28;22.42;;;6.10;99.90;;;;;;2089221;28;20025;-71
2021/11/24 03:52:45;;;;;;;37.15;22.77;;;6.10;99.90;;;;;;2090280;28;20112;-71
2021/11/24 03:53:46;;;;;;;35.70;22.75;;;6.10;99.90;;;;;;2090481;28;20021;-72
2021/11/24 03:54:47;;;;;;;33.72;21.35;;;6.10;99.90;;;;;;2090322;28;20025;-72
2021/11/24 03:55:47;;;;;;;36.28;21.98;;;6.20;99.90;;;;;;2089900;28;20083;-72
2021/11/24 03:56:48;;;;;;;32.78;20.63;;;6.10;99.90;;;;;;2089837;28;20029;-71
2021/11/24 03:57:49;;;;;;;33.05;20.92;;;6.20;99.90;;;;;;2089414;28;20112;-70
2021/11/24 03:58:50;;;;;;;34.15;21.20;;;6.10;99.90;;;;;;2089269;28;20049;-70
2021/11/24 03:59:50;;;;;;;35.17;21.60;;;6.10;99.90;;;;;;2089159;28;20056;-71
2021/11/24 04:00:51;;;;;;;36.22;21.17;;;6.10;99.90;;;;;;2089232;28;20037;-70
2021/11/24 04:01:52;;;;;;;32.60;21.10;;;6.10;99.90;;;;;;2089539;28;20024;-70
2021/11/24 04:02:53;;;;;;;35.33;21.85;;;6.10;99.90;;;;;;2090694;28;20039;-70
2021/11/24 04:03:53;;;;;;;33.80;21.20;;;6.10;99.90;;;;;;2092099;28;20085;-71
2021/11/24 04:04:54;;;;;;;32.55;20.40;;;6.10;99.90;;;;;;2093355;28;20029;-71
2021/11/24 04:05:55;;;;;;;34.65;20.90;;;6.10;99.90;;;;;;2092488;28;20029;-71
2021/11/24 04:06:56;;;;;;;32.90;20.52;;;6.00;99.90;;;;;;2091165;28;20104;-70
2021/11/24 04:07:57;;;;;;;40.05;23.20;;;6.00;99.90;;;;;;2089784;28;20654;-70
2021/11/24 04:08:58;;;;;;;38.78;23.13;;;6.00;99.90;;;;;;2089879;28;20089;-70
2021/11/24 04:09:59;;;;;;;38.42;22.73;;;6.00;99.90;;;;;;2089222;28;20037;-70
2021/11/24 04:11:00;;;;;;;36.17;22.08;;;6.00;99.90;;;;;;2089123;28;20408;-70
2021/11/24 04:12:01;;;;;;;35.75;22.20;;;6.00;99.90;;;;;;2089435;28;20021;-70
2021/11/24 04:13:01;;;;;;;36.28;21.80;;;6.00;99.90;;;;;;2089814;28;20508;-70
2021/11/24 04:14:02;;;;;;;37.15;21.70;;;6.00;99.90;;;;;;2089071;28;20033;-70
2021/11/24 04:15:07;;;;;;;35.30;21.85;;;6.00;99.90;;;;;;2089245;28;20032;-71
2021/11/24 04:16:08;;;;;;;35.60;22.08;;;6.00;99.90;;;;;;2088685;28;20508;-70
2021/11/24 04:17:09;;;;;;;37.85;22.27;;;6.00;99.90;;;;;;2089138;28;20021;-70
2021/11/24 04:18:09;;;;;;;34.88;21.92;;;6.00;99.90;;;;;;2089618;28;20025;-70
2021/11/24 04:19:10;;;;;;;36.70;22.17;;;6.00;99.90;;;;;;2089689;28;20025;-70
2021/11/24 04:20:14;;;;;;;36.20;22.27;;;6.00;99.90;;;;;;2089630;28;20767;-71
2021/11/24 04:21:17;;;;;;;36.17;22.05;;;6.00;99.90;;;;;;2089490;28;20017;-71
2021/11/24 04:22:17;;;;;;;36.72;22.20;;;6.00;99.90;;;;;;2089572;28;20040;-70
2021/11/24 04:23:18;;;;;;;36.70;22.17;;;6.00;99.90;;;;;;2089646;28;20036;-70
2021/11/24 04:24:19;;;;;;;34.20;21.48;;;6.00;99.90;;;;;;2088787;28;20056;-70
2021/11/24 04:25:20;;;;;;;37.03;22.42;;;6.00;99.90;;;;;;2089139;28;20029;-70
2021/11/24 04:26:20;;;;;;;39.95;23.02;;;6.00;99.90;;;;;;2089139;28;20048;-71
2021/11/24 04:27:22;;;;;;;38.17;23.05;;;6.00;99.90;;;;;;2089741;28;20538;-71
2021/11/24 04:28:23;;;;;;;37.28;22.98;;;6.00;99.90;;;;;;2089454;28;20025;-70
2021/11/24 04:29:24;;;;;;;38.60;23.00;;;6.00;99.90;;;;;;2089597;28;20481;-70
2021/11/24 04:30:25;;;;;;;36.28;22.25;;;6.00;99.90;;;;;;2089657;28;20029;-70
2021/11/24 04:31:25;;;;;;;36.17;22.20;;;6.00;99.90;;;;;;2089231;28;20032;-70
2021/11/24 04:32:26;;;;;;;39.75;23.35;;;6.00;99.90;;;;;;2089648;28;20029;-70
2021/11/24 04:33:27;;;;;;;40.10;23.30;;;6.00;99.90;;;;;;2089574;28;20036;-70
2021/11/24 04:34:30;;;;;;;37.97;23.10;;;6.00;99.90;;;;;;2089611;28;20107;-70
2021/11/24 04:35:31;;;;;;;43.85;24.42;;;6.00;99.90;;;;;;2089676;28;20036;-70
2021/11/24 04:36:31;;;;;;;45.92;25.00;;;6.00;99.90;;;;;;2089318;28;20439;-70
2021/11/24 04:37:32;;;;;;;41.28;23.88;;;6.00;99.90;;;;;;2089691;28;20396;-70
2021/11/24 04:38:33;;;;;;;42.88;24.67;;;5.90;99.90;;;;;;2090185;28;20028;-70
2021/11/24 04:39:34;;;;;;;41.00;23.52;;;5.90;99.90;;;;;;2090181;28;20036;-70
2021/11/24 04:40:35;;;;;;;42.05;23.95;;;5.90;99.90;;;;;;2090227;28;20033;-70
2021/11/24 04:41:36;;;;;;;39.38;24.25;;;5.90;99.90;;;;;;2090603;28;20063;-70
2021/11/24 04:42:38;;;;;;;40.17;24.20;;;5.90;99.90;;;;;;2090424;28;20047;-70
2021/11/24 04:43:43;;;;;;;41.40;23.88;;;5.80;99.90;;;;;;2089817;28;20472;-71
2021/11/24 04:44:43;;;;;;;40.90;23.88;;;5.80;99.90;;;;;;2089673;28;20049;-71
2021/11/24 04:45:45;;;;;;;41.70;24.15;;;5.80;99.90;;;;;;2089201;28;20397;-71
2021/11/24 04:46:45;;;;;;;41.10;24.05;;;5.90;99.90;;;;;;2089232;28;20025;-70
2021/11/24 04:47:46;;;;;;;40.55;23.85;;;5.90;99.90;;;;;;2089595;28;20063;-69
2021/11/24 04:48:47;;;;;;;40.97;24.00;;;5.80;99.90;;;;;;2089528;28;20108;-69
2021/11/24 04:49:49;;;;;;;39.50;23.05;;;5.80;99.90;;;;;;2089340;28;20025;-70
2021/11/24 04:50:50;;;;;;;39.35;23.17;;;5.80;99.90;;;;;;2089243;28;20033;-69
2021/11/24 04:51:50;;;;;;;43.90;24.30;;;5.80;99.90;;;;;;2089079;28;20132;-70
2021/11/24 04:52:51;;;;;;;39.72;23.17;;;5.80;99.90;;;;;;2088671;28;20037;-70
2021/11/24 04:53:52;;;;;;;39.20;22.80;;;5.80;99.90;;;;;;2089489;28;20084;-71
2021/11/24 04:54:53;;;;;;;38.22;22.55;;;5.80;99.90;;;;;;2090326;28;20029;-71
2021/11/24 04:55:53;;;;;;;35.53;21.80;;;5.80;99.90;;;;;;2088899;28;20033;-71
2021/11/24 04:56:54;;;;;;;37.45;22.42;;;5.80;99.90;;;;;;2089469;28;20029;-71
2021/11/24 04:57:55;;;;;;;36.92;22.60;;;5.80;99.90;;;;;;2081466;28;20033;-71
2021/11/24 04:58:58;;;;;;;37.25;22.55;;;5.70;99.90;;;;;;2090300;28;20048;-71
2021/11/24 04:59:59;;;;;;;37.78;22.17;;;5.70;99.90;;;;;;2089708;28;20043;-71
2021/11/24 05:01:00;;;;;;;37.78;21.98;;;5.70;99.90;;;;;;2089293;28;20024;-71
2021/11/24 05:02:01;;;;;;;37.70;22.35;;;5.70;99.90;;;;;;2089490;28;20396;-71
2021/11/24 05:03:02;;;;;;;34.95;21.08;;;5.70;99.90;;;;;;2090270;28;20024;-71
2021/11/24 05:04:02;;;;;;;35.25;21.30;;;5.70;99.90;;;;;;2089905;28;20381;-71
2021/11/24 05:05:03;;;;;;;37.45;22.27;;;5.60;99.90;;;;;;2090240;28;20047;-71
2021/11/24 05:06:04;;;;;;;36.15;21.45;;;5.60;99.90;;;;;;2089250;28;20025;-71
2021/11/24 05:07:05;;;;;;;38.15;21.35;;;5.60;99.90;;;;;;2090868;28;20025;-71
2021/11/24 05:08:07;;;;;;;34.25;20.90;;;5.50;99.90;;;;;;2090707;28;20492;-71
2021/11/24 05:09:08;;;;;;;36.00;21.55;;;5.50;99.90;;;;;;2091751;28;20029;-71
2021/11/24 05:10:09;;;;;;;39.78;22.80;;;5.50;99.90;;;;;;2091140;28;20032;-71
2021/11/24 05:11:13;;;;;;;35.50;20.70;;;5.50;99.90;;;;;;2089744;28;20455;-71
2021/11/24 05:12:14;;;;;;;34.97;21.05;;;5.40;99.90;;;;;;2089270;28;20037;-69
2021/11/24 05:13:15;;;;;;;34.47;20.05;;;5.40;99.90;;;;;;2088976;28;20029;-69
2021/11/24 05:14:22;;;;;;;37.30;22.02;;;5.40;99.90;;;;;;2089536;28;20086;-68
2021/11/24 05:15:26;;;;;;;39.53;23.27;;;5.40;99.90;;;;;;2089457;28;20033;-69